Latest Weather Observations for Gabo Island

IDN60801

Issued at 6:32 pm EST Saturday 23 May 2015 (issued every 30 minutes, with the page automatically refreshed every 10 minutes)

About weather observations | Map of weather stations | Latest weather observations for NSW | Other Formats
Station Details ID: 084016 Name: GABO ISLAND LIGHTHOUSE Lat: -37.57 Lon: 149.92 Height: 15.2 m
Data from the previous 72 hours. | See also: Recent months at Gabo Island
Date/Time
EST
Temp
°C
App
Temp
°C
Dew
Point
Rel
Hum
%
Delta-T
°C
Wind Press
QNH
hPa
Press
MSL
hPa
Rain
since 9 am
mm
Dir
 
Spd
km/h
Gust
km/h
Spd
kts
Gust
kts
23/06:30pm 12.0 4.9 6.2 67 2.7 W 33 46 18 25 1029.3 - 0.0
23/06:00pm 11.6 4.5 6.2 69 2.5 W 33 41 18 22 1029.2 1029.2 0.0
23/05:30pm 11.6 4.1 6.5 71 2.4 W 35 43 19 23 1029.2 - 0.0
23/05:00pm 11.9 4.5 6.6 70 2.5 W 35 43 19 23 1029.1 - 0.0
23/04:30pm 12.1 5.0 6.6 69 2.6 W 33 41 18 22 1029.1 - 0.0
23/04:00pm 12.6 5.2 6.9 68 2.7 W 35 44 19 24 1029.0 - 0.0
23/03:30pm 12.8 4.7 7.2 69 2.7 WSW 39 48 21 26 1028.8 - 0.0
23/03:00pm 13.1 5.4 7.3 68 2.8 WSW 37 46 20 25 1028.7 1028.6 0.0
23/02:30pm 13.3 5.6 7.1 66 3.0 WSW 37 46 20 25 1028.6 - 0.0
23/02:00pm 13.5 6.2 7.3 66 3.0 WSW 35 43 19 23 1028.4 - 0.0
23/01:30pm 13.5 6.2 7.3 66 3.0 WSW 35 44 19 24 1028.5 - 0.0
23/01:00pm 13.6 6.7 7.4 66 3.0 WSW 33 43 18 23 1028.7 - 0.0
23/12:30pm 13.4 6.0 6.9 65 3.1 WSW 35 46 19 25 1028.8 - 0.0
23/12:00pm 13.1 5.2 6.3 63 3.2 W 37 46 20 25 1029.1 1029.2 0.0
23/11:30am 13.0 5.5 6.5 64 3.1 W 35 44 19 24 1029.5 - 0.0
23/11:00am 12.9 5.1 6.6 65 3.0 W 37 46 20 25 1029.7 - 0.0
23/10:30am 12.3 4.0 6.3 67 2.8 W 39 48 21 26 1029.8 - 0.0
23/10:00am 12.2 3.9 6.0 66 2.9 W 39 50 21 27 1029.8 - 0.0
23/09:30am 11.8 3.9 6.0 67 2.7 W 37 46 20 25 1029.8 - 0.0
23/09:00am 11.8 3.9 6.2 68 2.6 W 37 52 20 28 1029.7 1029.9 4.8
23/08:30am 11.5 3.2 5.9 68 2.6 W 39 48 21 26 1029.5 - 4.8
23/08:00am 11.1 2.7 5.4 68 2.6 W 39 48 21 26 1029.4 - 4.8
23/07:30am 11.0 2.3 5.8 70 2.4 W 41 50 22 27 1029.2 - 4.8
23/07:00am 10.8 1.7 5.8 71 2.3 W 43 54 23 29 1029.0 - 4.8
23/06:30am 10.9 2.6 6.1 72 2.2 W 39 50 21 27 1028.7 - 4.8
23/06:00am 10.8 2.4 5.8 71 2.3 W 39 50 21 27 1028.3 1028.2 4.8
23/05:30am 10.8 2.5 6.3 74 2.1 W 39 48 21 26 1028.2 - 4.8
23/05:00am 10.8 3.3 6.5 75 2.0 W 35 44 19 24 1028.0 - 4.8
23/04:30am 10.9 3.1 6.6 75 2.0 W 37 44 20 24 1028.0 - 4.8
23/04:00am 10.8 1.9 6.7 76 1.9 W 43 52 23 28 1028.0 - 4.8
23/03:30am 11.3 2.9 7.5 77 1.8 W 41 50 22 27 1028.1 - 4.8
23/03:00am 11.7 4.7 8.4 80 1.6 W 35 44 19 24 1028.1 1028.0 4.8
23/02:30am 12.1 4.8 8.9 81 1.6 W 37 44 20 24 1028.0 - 4.8
23/02:00am 12.6 5.8 9.2 80 1.7 WSW 35 50 19 27 1028.1 - 4.8
23/01:30am 12.4 5.2 9.2 81 1.6 WSW 37 46 20 25 1028.0 - 4.8
23/01:00am 12.0 5.6 9.2 83 1.4 W 33 39 18 21 1028.1 - 4.8
23/12:30am 12.4 5.6 9.4 82 1.5 W 35 44 19 24 1028.1 - 4.8
23/12:00am 11.9 4.0 7.8 76 2.0 W 39 44 21 24 1028.2 1028.2 4.8
 
Date/Time
EST
Temp
°C
App
Temp
°C
Dew
Point
Rel
Hum
%
Delta-T
°C
Wind Press
QNH
hPa
Press
MSL
hPa
Rain
since 9 am
mm
Dir
 
Spd
km/h
Gust
km/h
Spd
kts
Gust
kts
22/11:30pm 12.2 5.0 7.6 73 2.2 W 35 43 19 23 1028.2 - 4.8
22/11:00pm 12.6 6.1 8.1 74 2.2 W 32 39 17 21 1028.1 - 4.8
22/10:30pm 12.4 6.1 7.6 72 2.3 W 30 37 16 20 1028.2 - 4.8
22/10:00pm 12.5 7.1 7.8 73 2.3 W 26 32 14 17 1028.3 - 4.8
22/09:30pm 12.7 7.3 8.2 74 2.2 W 26 33 14 18 1028.3 - 4.8
22/09:12pm 13.0 7.5 7.7 70 2.6 W 26 43 14 23 1028.3 - 4.8
22/09:00pm 14.1 5.5 6.3 59 3.7 SW 41 52 22 28 1028.2 1028.2 4.8
22/08:30pm 13.9 4.9 6.6 61 3.5 SW 43 52 23 28 1028.1 - 4.8
22/08:00pm 13.9 5.3 8.0 67 2.9 SW 43 54 23 29 1028.0 - 4.8
22/07:30pm 13.7 4.7 6.6 62 3.4 SW 43 50 23 27 1028.0 - 4.8
22/07:00pm 13.7 5.2 7.1 64 3.2 SW 41 50 22 27 1027.8 - 4.8
22/06:30pm 13.9 4.8 6.1 59 3.7 SW 43 52 23 28 1027.5 - 4.6
22/06:00pm 13.8 4.4 7.2 64 3.2 SW 46 54 25 29 1027.3 1027.2 4.6
22/05:30pm 13.8 4.2 7.9 67 2.9 SW 48 57 26 31 1027.0 - 4.6
22/05:00pm 13.0 4.4 9.0 77 2.0 SSW 44 50 24 27 1027.0 - 4.6
22/04:30pm 12.9 3.7 9.5 80 1.7 SSW 48 59 26 32 1026.7 - 4.6
22/04:00pm 13.5 4.4 11.2 86 1.2 SSW 50 57 27 31 1026.5 - 4.2
22/03:30pm 14.0 5.2 11.0 82 1.6 SSW 48 56 26 30 1026.0 - 4.2
22/03:00pm 12.9 7.2 11.2 89 0.9 S 32 39 17 21 1025.7 1025.7 4.0
22/02:30pm 12.7 5.0 11.4 92 0.7 SSW 43 50 23 27 1025.7 - 3.8
22/02:05pm 12.6 7.1 11.7 94 0.5 SSW 32 54 17 29 1025.5 - 3.4
22/02:00pm 12.8 7.3 11.9 94 0.5 SSW 32 46 17 25 1025.4 - 3.0
22/01:30pm 13.8 6.3 10.7 81 1.6 SW 41 50 22 27 1025.4 - 0.0
22/01:00pm 15.0 7.0 8.9 67 3.1 SSW 41 50 22 27 1025.3 - 0.0
22/12:30pm 15.2 7.7 9.6 69 2.9 SSW 39 44 21 24 1025.4 - 0.0
22/12:00pm 13.8 7.3 8.1 68 2.8 SSW 32 39 17 21 1025.8 1025.9 0.0
22/11:32am 14.8 8.4 9.5 70 2.7 S 33 52 18 28 1025.9 - 0.0
22/11:30am 14.6 8.4 9.3 70 2.7 S 32 43 17 23 1026.0 - 0.0
22/11:00am 14.8 8.5 9.1 68 2.9 S 32 54 17 29 1026.1 - 0.0
22/10:51am 13.9 6.6 8.9 72 2.5 S 37 56 20 30 1026.2 - 0.0
22/10:30am 14.9 6.6 7.6 61 3.6 SSW 41 50 22 27 1025.9 - 0.0
22/10:00am 15.0 7.6 6.7 57 4.0 S 35 44 19 24 1025.8 - 0.0
22/09:30am 14.6 8.6 7.2 61 3.6 S 28 41 15 22 1025.5 - 0.0
22/09:24am 14.1 6.9 7.8 66 3.1 S 35 54 19 29 1025.6 - 0.0
22/09:00am 14.1 5.8 7.6 65 3.2 S 41 44 22 24 1025.4 1025.5 13.8
22/08:30am 14.2 7.6 8.6 69 2.8 S 33 43 18 23 1025.2 - 13.8
22/08:00am 13.7 7.3 9.4 75 2.2 S 33 48 18 26 1025.1 - 13.8
22/07:52am 13.4 6.0 9.7 78 1.9 SSE 39 48 21 26 1025.0 - 13.8
22/07:30am 13.9 5.6 9.2 73 2.4 S 43 56 23 30 1024.7 - 13.8
22/07:19am 14.7 6.7 7.6 62 3.5 S 39 44 21 24 1024.3 - 13.8
22/07:00am 15.0 7.8 7.7 61 3.6 SSE 35 44 19 24 1024.0 - 13.8
22/06:30am 15.0 7.9 8.2 64 3.4 S 35 46 19 25 1023.6 - 13.8
22/06:00am 15.1 8.9 9.2 68 3.0 S 32 41 17 22 1023.2 1023.2 13.8
22/05:30am 15.2 9.1 9.6 69 2.9 S 32 39 17 21 1022.9 - 13.8
22/05:00am 15.1 8.1 8.6 65 3.3 S 35 43 19 23 1022.7 - 13.8
22/04:30am 14.9 7.5 8.3 64 3.3 S 37 46 20 25 1022.7 - 13.8
22/04:00am 15.0 7.2 8.4 64 3.3 S 39 50 21 27 1022.7 - 13.8
22/03:30am 15.1 7.8 8.6 65 3.3 S 37 46 20 25 1022.7 - 13.8
22/03:00am 15.0 7.4 8.9 67 3.1 S 39 46 21 25 1022.8 1022.7 13.8
22/02:30am 15.1 7.5 9.2 68 3.0 S 39 46 21 25 1022.8 - 13.8
22/02:00am 14.6 7.7 10.4 76 2.2 SSE 37 50 20 27 1022.8 - 13.8
22/01:30am 14.7 7.7 11.3 80 1.8 SSE 39 46 21 25 1022.7 - 13.4
22/01:00am 15.0 8.0 11.2 78 2.0 SSE 39 50 21 27 1022.7 - 13.2
22/12:30am 14.9 7.6 11.7 81 1.7 SSE 41 52 22 28 1022.6 - 12.8
22/12:00am 14.7 7.9 12.1 84 1.4 SSE 39 52 21 28 1022.6 1022.5 12.8
 
Date/Time
EST
Temp
°C
App
Temp
°C
Dew
Point
Rel
Hum
%
Delta-T
°C
Wind Press
QNH
hPa
Press
MSL
hPa
Rain
since 9 am
mm
Dir
 
Spd
km/h
Gust
km/h
Spd
kts
Gust
kts
21/11:30pm 15.0 7.8 12.0 82 1.6 SSE 41 52 22 28 1022.4 - 12.8
21/11:00pm 14.8 9.2 12.0 83 1.5 SSE 33 44 18 24 1022.4 - 12.8
21/10:30pm 15.2 9.1 11.7 79 1.9 SSE 35 43 19 23 1022.4 - 12.8
21/10:00pm 15.4 10.0 12.9 85 1.4 S 33 41 18 22 1022.4 - 12.8
21/09:30pm 15.3 9.8 12.4 83 1.6 SSE 33 43 18 23 1022.3 - 12.8
21/09:00pm 15.6 9.3 10.9 73 2.5 SSE 35 41 19 22 1022.2 1022.1 12.4
21/08:30pm 15.8 9.8 10.7 71 2.7 SSE 33 43 18 23 1021.9 - 12.4
21/08:00pm 15.3 10.9 11.6 78 2.0 SSE 26 39 14 21 1021.7 - 12.4
21/07:54pm 15.0 10.1 11.4 79 1.9 SE 28 46 15 25 1021.8 - 12.4
21/07:30pm 15.6 9.3 10.9 73 2.5 SSE 35 44 19 24 1021.6 - 12.0
21/07:00pm 15.4 8.5 11.5 77 2.1 SSE 39 50 21 27 1021.4 - 12.0
21/06:30pm 15.8 9.4 11.9 77 2.1 SSE 37 46 20 25 1021.2 - 11.8
21/06:00pm 14.2 11.5 12.9 92 0.7 SSE 19 44 10 24 1021.0 1021.1 11.8
21/05:30pm 13.6 8.3 12.5 93 0.6 WSW 32 39 17 21 1020.9 - 4.6
21/05:00pm 13.7 7.7 12.2 91 0.8 WSW 35 43 19 23 1020.7 - 0.4
21/04:30pm 14.0 7.9 11.6 85 1.3 WSW 35 44 19 24 1020.4 - 0.0
21/04:00pm 14.4 8.3 11.6 83 1.5 SW 35 43 19 23 1020.3 - 0.0
21/03:30pm 14.5 7.2 11.7 83 1.5 SW 41 48 22 26 1020.0 - 0.0
21/03:00pm 14.8 8.3 11.8 82 1.6 SW 37 43 20 23 1019.9 1019.9 0.0
21/02:30pm 15.0 9.0 12.0 82 1.6 SW 35 41 19 22 1019.8 - 0.0
21/02:00pm 15.1 9.0 11.8 81 1.8 SW 35 41 19 22 1019.7 - 0.0
21/01:30pm 15.5 9.8 11.8 78 2.0 SW 33 39 18 21 1019.8 - 0.0
21/01:00pm 15.4 10.6 11.7 78 2.0 SW 28 32 15 17 1020.1 - 0.0
21/12:30pm 15.4 11.5 12.1 81 1.8 SW 24 30 13 16 1020.3 - 0.0
21/12:00pm 15.4 10.0 12.1 81 1.8 SW 32 39 17 21 1020.5 1020.6 0.0
21/11:30am 15.0 10.0 12.2 83 1.5 SW 30 35 16 19 1020.7 - 0.0
21/11:00am 15.9 11.7 12.4 80 1.9 WSW 26 32 14 17 1020.7 - 0.0
21/10:30am 15.3 10.2 12.0 81 1.8 WSW 30 37 16 20 1020.6 - 0.0
21/10:00am 15.1 10.0 12.0 82 1.7 WSW 30 33 16 18 1020.4 - 0.0
21/09:30am 13.4 10.0 11.3 87 1.1 W 20 24 11 13 1020.3 - 0.0
21/09:00am 12.9 9.1 11.0 88 1.0 W 22 26 12 14 1020.2 1020.1 0.0
21/08:30am 12.8 8.9 10.9 88 1.0 W 22 26 12 14 1019.9 - 0.0
21/08:00am 12.7 9.3 11.2 91 0.8 W 20 24 11 13 1019.5 - 0.0
21/07:30am 12.9 9.8 11.6 92 0.7 WNW 19 22 10 12 1019.0 - 0.0
21/07:00am 12.6 9.5 11.5 93 0.6 W 19 24 10 13 1018.6 - 0.0
21/06:30am 12.6 9.8 11.5 93 0.6 WNW 17 20 9 11 1018.3 - 0.0
21/06:00am 12.8 9.7 11.7 93 0.6 WNW 19 24 10 13 1017.8 1017.8 0.0
21/05:30am 12.9 9.9 11.8 93 0.6 W 19 22 10 12 1017.5 - 0.0
21/05:00am 13.1 10.1 12.0 93 0.6 WNW 19 20 10 11 1017.2 - 0.0
21/04:30am 12.9 10.2 11.8 93 0.6 WNW 17 24 9 13 1016.8 - 0.0
21/04:00am 13.1 10.1 12.0 93 0.6 W 19 24 10 13 1016.6 - 0.0
21/03:30am 13.0 10.4 11.9 93 0.6 WNW 17 20 9 11 1016.6 - 0.0
21/03:00am 13.0 10.7 11.7 92 0.7 WNW 15 20 8 11 1016.5 1016.5 0.0
21/02:30am 13.3 10.7 12.0 92 0.7 W 17 19 9 10 1016.5 - 0.0
21/02:00am 13.4 10.7 11.7 89 0.9 W 17 20 9 11 1016.5 - 0.0
21/01:30am 13.5 10.5 11.8 89 0.9 W 19 20 10 11 1016.1 - 0.0
21/01:00am 13.2 10.4 11.3 88 1.0 W 17 19 9 10 1016.1 - 0.0
21/12:30am 13.4 10.6 11.5 88 1.0 W 17 19 9 10 1015.9 - 0.0
21/12:00am 14.1 11.2 11.1 82 1.6 W 17 17 9 9 1015.8 1015.8 0.0
 
Date/Time
EST
Temp
°C
App
Temp
°C
Dew
Point
Rel
Hum
%
Delta-T
°C
Wind Press
QNH
hPa
Press
MSL
hPa
Rain
since 9 am
mm
Dir
 
Spd
km/h
Gust
km/h
Spd
kts
Gust
kts
20/11:30pm 14.5 12.1 11.5 82 1.6 WSW 15 19 8 10 1015.7 - 0.0
20/11:00pm 14.2 11.6 12.0 87 1.2 W 17 20 9 11 1015.6 - 0.0
20/10:30pm 14.2 12.3 11.8 85 1.3 W 13 15 7 8 1015.5 - 0.0
20/10:00pm 14.9 12.2 11.7 81 1.7 WSW 17 20 9 11 1015.5 - 0.0
20/09:30pm 15.0 12.7 11.9 82 1.7 W 15 19 8 10 1015.5 - 0.0
20/09:00pm 15.5 13.0 12.4 82 1.7 WSW 17 20 9 11 1015.1 1015.0 0.0
20/08:30pm 15.7 13.5 12.0 78 2.0 WSW 15 17 8 9 1014.8 - 0.0
20/08:00pm 16.1 13.0 12.3 78 2.1 WSW 20 26 11 14 1014.2 - 0.0
20/07:30pm 16.5 13.3 11.3 71 2.8 WNW 19 22 10 12 1013.5 - 0.0
20/07:00pm 17.1 14.7 11.4 69 3.1 WNW 15 20 8 11 1013.3 - 0.0

Other Formats:

Comma delimited format used in spreadsheet applications
http://www.bom.gov.au/fwo/IDN60801/IDN60801.94933.axf

JavaScript Object Notation format (JSON) in row-major order
http://www.bom.gov.au/fwo/IDN60801/IDN60801.94933.json